sensor_id;sensor_type;location;lat;lon;timestamp;pressure;altitude;pressure_sealevel;temperature;humidity
75460;BME280;64039;53.060;9.342;2023-04-21T00:01:56;101550.41;;;7.52;100.00
75460;BME280;64039;53.060;9.342;2023-04-21T00:04:23;101539.13;;;7.51;100.00
75460;BME280;64039;53.060;9.342;2023-04-21T00:06:49;101542.69;;;7.53;100.00
75460;BME280;64039;53.060;9.342;2023-04-21T00:09:14;101542.41;;;7.47;100.00
75460;BME280;64039;53.060;9.342;2023-04-21T00:11:41;101541.47;;;7.45;100.00
75460;BME280;64039;53.060;9.342;2023-04-21T00:14:06;101534.72;;;7.49;100.00
75460;BME280;64039;53.060;9.342;2023-04-21T00:16:33;101535.13;;;7.38;100.00
75460;BME280;64039;53.060;9.342;2023-04-21T00:18:59;101537.91;;;7.43;100.00
75460;BME280;64039;53.060;9.342;2023-04-21T00:21:24;101531.09;;;7.45;100.00
75460;BME280;64039;53.060;9.342;2023-04-21T00:23:50;101523.22;;;7.42;100.00
75460;BME280;64039;53.060;9.342;2023-04-21T00:26:16;101531.09;;;7.45;100.00
75460;BME280;64039;53.060;9.342;2023-04-21T00:28:41;101527.53;;;7.43;100.00
75460;BME280;64039;53.060;9.342;2023-04-21T00:31:07;101525.38;;;7.33;100.00
75460;BME280;64039;53.060;9.342;2023-04-21T00:33:32;101526.94;;;7.29;100.00
75460;BME280;64039;53.060;9.342;2023-04-21T00:35:58;101517.72;;;7.36;100.00
75460;BME280;64039;53.060;9.342;2023-04-21T00:38:23;101523.09;;;7.21;100.00
75460;BME280;64039;53.060;9.342;2023-04-21T00:40:49;101520.78;;;7.27;100.00
75460;BME280;64039;53.060;9.342;2023-04-21T00:43:14;101525.00;;;7.25;100.00
75460;BME280;64039;53.060;9.342;2023-04-21T00:45:40;101521.44;;;7.23;100.00
75460;BME280;64039;53.060;9.342;2023-04-21T00:48:05;101516.63;;;7.31;100.00
75460;BME280;64039;53.060;9.342;2023-04-21T00:50:31;101515.63;;;7.27;100.00
75460;BME280;64039;53.060;9.342;2023-04-21T00:52:57;101518.16;;;7.26;100.00
75460;BME280;64039;53.060;9.342;2023-04-21T00:55:23;101523.09;;;7.21;100.00
75460;BME280;64039;53.060;9.342;2023-04-21T00:57:50;101512.59;;;7.18;100.00
75460;BME280;64039;53.060;9.342;2023-04-21T01:00:16;101516.59;;;7.11;100.00
75460;BME280;64039;53.060;9.342;2023-04-21T01:02:42;101517.00;;;7.01;100.00
75460;BME280;64039;53.060;9.342;2023-04-21T01:05:09;101519.72;;;7.04;100.00
75460;BME280;64039;53.060;9.342;2023-04-21T01:07:35;101520.75;;;7.07;100.00
75460;BME280;64039;53.060;9.342;2023-04-21T01:10:02;101510.72;;;6.96;100.00
75460;BME280;64039;53.060;9.342;2023-04-21T01:12:28;101504.88;;;7.00;100.00
75460;BME280;64039;53.060;9.342;2023-04-21T01:14:53;101509.97;;;6.98;100.00
75460;BME280;64039;53.060;9.342;2023-04-21T01:17:19;101504.88;;;7.00;100.00
75460;BME280;64039;53.060;9.342;2023-04-21T01:19:45;101503.91;;;6.98;100.00
75460;BME280;64039;53.060;9.342;2023-04-21T01:22:11;101505.53;;;6.96;100.00
75460;BME280;64039;53.060;9.342;2023-04-21T01:24:45;101504.72;;;6.97;100.00
75460;BME280;64039;53.060;9.342;2023-04-21T01:27:16;101502.19;;;6.98;100.00
75460;BME280;64039;53.060;9.342;2023-04-21T01:29:47;101499.59;;;6.98;100.00
75460;BME280;64039;53.060;9.342;2023-04-21T01:32:16;101498.22;;;6.87;100.00
75460;BME280;64039;53.060;9.342;2023-04-21T01:34:42;101498.34;;;6.90;100.00
75460;BME280;64039;53.060;9.342;2023-04-21T01:37:10;101491.28;;;6.86;100.00
75460;BME280;64039;53.060;9.342;2023-04-21T01:39:40;101492.84;;;6.82;100.00
75460;BME280;64039;53.060;9.342;2023-04-21T01:42:06;101491.81;;;6.79;100.00
75460;BME280;64039;53.060;9.342;2023-04-21T01:44:32;101483.25;;;6.80;100.00
75460;BME280;64039;53.060;9.342;2023-04-21T01:46:58;101484.03;;;6.79;100.00
75460;BME280;64039;53.060;9.342;2023-04-21T01:49:24;101481.59;;;6.82;100.00
75460;BME280;64039;53.060;9.342;2023-04-21T01:51:49;101479.81;;;6.81;100.00
75460;BME280;64039;53.060;9.342;2023-04-21T01:54:14;101476.28;;;6.79;100.00
75460;BME280;64039;53.060;9.342;2023-04-21T01:56:40;101480.44;;;6.75;100.00
75460;BME280;64039;53.060;9.342;2023-04-21T01:59:05;101484.03;;;6.79;100.00
75460;BME280;64039;53.060;9.342;2023-04-21T02:01:31;101472.50;;;6.72;100.00
75460;BME280;64039;53.060;9.342;2023-04-21T02:03:56;101474.28;;;6.73;100.00
75460;BME280;64039;53.060;9.342;2023-04-21T02:06:22;101470.88;;;6.74;100.00
75460;BME280;64039;53.060;9.342;2023-04-21T02:08:47;101471.53;;;6.70;100.00
75460;BME280;64039;53.060;9.342;2023-04-21T02:11:13;101469.63;;;6.66;100.00
75460;BME280;64039;53.060;9.342;2023-04-21T02:13:38;101473.91;;;6.65;100.00
75460;BME280;64039;53.060;9.342;2023-04-21T02:16:04;101470.16;;;6.58;100.00
75460;BME280;64039;53.060;9.342;2023-04-21T02:18:30;101473.09;;;6.66;100.00
75460;BME280;64039;53.060;9.342;2023-04-21T02:20:55;101468.09;;;6.69;100.00
75460;BME280;64039;53.060;9.342;2023-04-21T02:23:21;101474.34;;;6.74;100.00
75460;BME280;64039;53.060;9.342;2023-04-21T02:25:46;101471.47;;;6.68;100.00
75460;BME280;64039;53.060;9.342;2023-04-21T02:28:11;101474.94;;;6.69;100.00
75460;BME280;64039;53.060;9.342;2023-04-21T02:30:37;101473.91;;;6.65;100.00
75460;BME280;64039;53.060;9.342;2023-04-21T02:33:02;101472.22;;;6.66;100.00
75460;BME280;64039;53.060;9.342;2023-04-21T02:35:28;101474.81;;;6.66;100.00
75460;BME280;64039;53.060;9.342;2023-04-21T02:37:53;101465.22;;;6.63;100.00
75460;BME280;64039;53.060;9.342;2023-04-21T02:40:19;101473.69;;;6.60;100.00
75460;BME280;64039;53.060;9.342;2023-04-21T02:42:45;101478.06;;;6.61;100.00
75460;BME280;64039;53.060;9.342;2023-04-21T02:45:10;101467.13;;;6.49;100.00
75460;BME280;64039;53.060;9.342;2023-04-21T02:47:36;101468.97;;;6.52;100.00
75460;BME280;64039;53.060;9.342;2023-04-21T02:50:01;101472.75;;;6.58;100.00
75460;BME280;64039;53.060;9.342;2023-04-21T02:52:27;101475.41;;;6.60;100.00
75460;BME280;64039;53.060;9.342;2023-04-21T02:54:53;101475.69;;;6.66;100.00
75460;BME280;64039;53.060;9.342;2023-04-21T02:57:18;101477.81;;;6.57;100.00
75460;BME280;64039;53.060;9.342;2023-04-21T02:59:43;101473.34;;;6.53;100.00
75460;BME280;64039;53.060;9.342;2023-04-21T03:02:10;101473.47;;;6.56;100.00
75460;BME280;64039;53.060;9.342;2023-04-21T03:04:35;101469.63;;;6.66;100.00
75460;BME280;64039;53.060;9.342;2023-04-21T03:07:01;101471.25;;;6.64;100.00
75460;BME280;64039;53.060;9.342;2023-04-21T03:09:27;101463.44;;;6.62;100.00
75460;BME280;64039;53.060;9.342;2023-04-21T03:11:52;101464.16;;;6.59;100.00
75460;BME280;64039;53.060;9.342;2023-04-21T03:14:18;101464.84;;;6.55;100.00
75460;BME280;64039;53.060;9.342;2023-04-21T03:16:43;101460.47;;;6.54;100.00
75460;BME280;64039;53.060;9.342;2023-04-21T03:19:09;101457.72;;;6.51;100.00
75460;BME280;64039;53.060;9.342;2023-04-21T03:21:37;101447.25;;;6.48;100.00
75460;BME280;64039;53.060;9.342;2023-04-21T03:24:05;101450.59;;;6.45;100.00
75460;BME280;64039;53.060;9.342;2023-04-21T03:26:30;101452.31;;;6.47;100.00
75460;BME280;64039;53.060;9.342;2023-04-21T03:28:55;101444.72;;;6.50;100.00
75460;BME280;64039;53.060;9.342;2023-04-21T03:31:21;101446.44;;;6.49;100.00
75460;BME280;64039;53.060;9.342;2023-04-21T03:33:46;101438.91;;;6.54;100.00
75460;BME280;64039;53.060;9.342;2023-04-21T03:36:12;101436.31;;;6.54;100.00
75460;BME280;64039;53.060;9.342;2023-04-21T03:38:38;101436.81;;;6.47;100.00
75460;BME280;64039;53.060;9.342;2023-04-21T03:41:03;101444.50;;;6.45;100.00
75460;BME280;64039;53.060;9.342;2023-04-21T03:43:29;101440.31;;;6.47;100.00
75460;BME280;64039;53.060;9.342;2023-04-21T03:45:54;101433.13;;;6.41;100.00
75460;BME280;64039;53.060;9.342;2023-04-21T03:48:20;101436.97;;;6.50;100.00
75460;BME280;64039;53.060;9.342;2023-04-21T03:50:45;101435.06;;;6.45;100.00
75460;BME280;64039;53.060;9.342;2023-04-21T03:53:11;101440.66;;;6.55;100.00
75460;BME280;64039;53.060;9.342;2023-04-21T03:55:36;101445.53;;;6.49;100.00
75460;BME280;64039;53.060;9.342;2023-04-21T03:58:02;101437.03;;;6.51;100.00
75460;BME280;64039;53.060;9.342;2023-04-21T04:00:27;101447.09;;;6.45;100.00
75460;BME280;64039;53.060;9.342;2023-04-21T04:02:53;101438.31;;;6.41;100.00
75460;BME280;64039;53.060;9.342;2023-04-21T04:05:18;101438.16;;;6.38;100.00
75460;BME280;64039;53.060;9.342;2023-04-21T04:07:44;101439.34;;;6.45;100.00
75460;BME280;64039;53.060;9.342;2023-04-21T04:10:09;101439.09;;;6.40;100.00
75460;BME280;64039;53.060;9.342;2023-04-21T04:12:36;101443.13;;;6.34;100.00
75460;BME280;64039;53.060;9.342;2023-04-21T04:15:01;101441.13;;;6.28;100.00
75460;BME280;64039;53.060;9.342;2023-04-21T04:17:27;101441.19;;;6.29;100.00
75460;BME280;64039;53.060;9.342;2023-04-21T04:19:52;101440.97;;;6.25;100.00
75460;BME280;64039;53.060;9.342;2023-04-21T04:22:18;101441.69;;;6.22;100.00
75460;BME280;64039;53.060;9.342;2023-04-21T04:24:43;101437.50;;;6.24;100.00
75460;BME280;64039;53.060;9.342;2023-04-21T04:27:09;101443.59;;;6.26;100.00
75460;BME280;64039;53.060;9.342;2023-04-21T04:29:38;101447.97;;;6.27;100.00
75460;BME280;64039;53.060;9.342;2023-04-21T04:32:04;101447.16;;;6.28;100.00
75460;BME280;64039;53.060;9.342;2023-04-21T04:34:31;101448.94;;;6.29;100.00
75460;BME280;64039;53.060;9.342;2023-04-21T04:36:57;101447.91;;;6.26;100.00
75460;BME280;64039;53.060;9.342;2023-04-21T04:39:26;101444.97;;;6.36;100.00
75460;BME280;64039;53.060;9.342;2023-04-21T04:41:51;101450.03;;;6.35;100.00
75460;BME280;64039;53.060;9.342;2023-04-21T04:44:18;101449.09;;;6.33;100.00
75460;BME280;64039;53.060;9.342;2023-04-21T04:46:43;101450.13;;;6.36;100.00
75460;BME280;64039;53.060;9.342;2023-04-21T04:49:09;101457.31;;;6.42;100.00
75460;BME280;64039;53.060;9.342;2023-04-21T04:51:35;101454.50;;;6.37;100.00
75460;BME280;64039;53.060;9.342;2023-04-21T04:54:01;101461.56;;;6.41;100.00
75460;BME280;64039;53.060;9.342;2023-04-21T04:56:26;101463.63;;;6.49;100.00
75460;BME280;64039;53.060;9.342;2023-04-21T04:58:53;101461.16;;;6.50;100.00
75460;BME280;64039;53.060;9.342;2023-04-21T05:01:19;101458.75;;;6.55;100.00
75460;BME280;64039;53.060;9.342;2023-04-21T05:03:45;101461.44;;;6.56;100.00
75460;BME280;64039;53.060;9.342;2023-04-21T05:06:11;101462.75;;;6.66;100.00
75460;BME280;64039;53.060;9.342;2023-04-21T05:08:38;101465.13;;;6.61;100.00
75460;BME280;64039;53.060;9.342;2023-04-21T05:11:06;101459.41;;;6.69;100.00
75460;BME280;64039;53.060;9.342;2023-04-21T05:13:31;101463.56;;;6.65;100.00
75460;BME280;64039;53.060;9.342;2023-04-21T05:15:57;101467.13;;;6.67;100.00
75460;BME280;64039;53.060;9.342;2023-04-21T05:18:23;101459.94;;;6.80;100.00
75460;BME280;64039;53.060;9.342;2023-04-21T05:20:48;101459.94;;;6.80;100.00
75460;BME280;64039;53.060;9.342;2023-04-21T05:23:13;101453.22;;;6.83;100.00
75460;BME280;64039;53.060;9.342;2023-04-21T05:25:39;101454.31;;;6.88;100.00
75460;BME280;64039;53.060;9.342;2023-04-21T05:28:04;101463.84;;;6.89;100.00
75460;BME280;64039;53.060;9.342;2023-04-21T05:30:30;101461.31;;;6.91;100.00
75460;BME280;64039;53.060;9.342;2023-04-21T05:32:55;101464.59;;;7.06;100.00
75460;BME280;64039;53.060;9.342;2023-04-21T05:35:21;101469.25;;;7.14;100.00
75460;BME280;64039;53.060;9.342;2023-04-21T05:37:46;101471.03;;;7.15;100.00
75460;BME280;64039;53.060;9.342;2023-04-21T05:40:12;101462.06;;;7.26;100.00
75460;BME280;64039;53.060;9.342;2023-04-21T05:42:37;101466.84;;;7.36;100.00
75460;BME280;64039;53.060;9.342;2023-04-21T05:45:03;101467.91;;;7.42;100.00
75460;BME280;64039;53.060;9.342;2023-04-21T05:47:29;101462.63;;;7.38;100.00
75460;BME280;64039;53.060;9.342;2023-04-21T05:49:54;101466.22;;;7.42;100.00
75460;BME280;64039;53.060;9.342;2023-04-21T05:52:20;101466.69;;;7.53;100.00
75460;BME280;64039;53.060;9.342;2023-04-21T05:54:46;101455.84;;;7.62;100.00
75460;BME280;64039;53.060;9.342;2023-04-21T05:57:11;101455.16;;;7.66;100.00
75460;BME280;64039;53.060;9.342;2023-04-21T05:59:37;101458.88;;;7.72;100.00
75460;BME280;64039;53.060;9.342;2023-04-21T06:02:02;101456.06;;;7.87;100.00
75460;BME280;64039;53.060;9.342;2023-04-21T06:04:28;101454.63;;;7.94;100.00
75460;BME280;64039;53.060;9.342;2023-04-21T06:06:53;101460.97;;;8.01;100.00
75460;BME280;64039;53.060;9.342;2023-04-21T06:09:19;101450.84;;;8.07;100.00
75460;BME280;64039;53.060;9.342;2023-04-21T06:11:44;101456.34;;;8.15;100.00
75460;BME280;64039;53.060;9.342;2023-04-21T06:14:10;101459.25;;;8.23;100.00
75460;BME280;64039;53.060;9.342;2023-04-21T06:16:35;101456.66;;;8.44;100.00
75460;BME280;64039;53.060;9.342;2023-04-21T06:19:01;101451.28;;;8.60;100.00
75460;BME280;64039;53.060;9.342;2023-04-21T06:21:26;101457.47;;;8.64;100.00
75460;BME280;64039;53.060;9.342;2023-04-21T06:23:52;101447.41;;;8.72;100.00
75460;BME280;64039;53.060;9.342;2023-04-21T06:26:17;101447.78;;;8.81;100.00
75460;BME280;64039;53.060;9.342;2023-04-21T06:28:43;101446.34;;;8.89;100.00
75460;BME280;64039;53.060;9.342;2023-04-21T06:31:08;101445.19;;;9.05;100.00
75460;BME280;64039;53.060;9.342;2023-04-21T06:33:39;101445.31;;;9.08;100.00
75460;BME280;64039;53.060;9.342;2023-04-21T06:36:05;101442.34;;;9.22;100.00
75460;BME280;64039;53.060;9.342;2023-04-21T06:38:30;101435.78;;;9.32;100.00
75460;BME280;64039;53.060;9.342;2023-04-21T06:40:56;101432.75;;;9.43;100.00
75460;BME280;64039;53.060;9.342;2023-04-21T06:43:21;101426.94;;;9.51;100.00
75460;BME280;64039;53.060;9.342;2023-04-21T06:45:47;101437.91;;;9.68;100.00
75460;BME280;64039;53.060;9.342;2023-04-21T06:48:12;101431.25;;;9.76;100.00
75460;BME280;64039;53.060;9.342;2023-04-21T06:50:38;101431.56;;;9.85;100.00
75460;BME280;64039;53.060;9.342;2023-04-21T06:53:03;101436.22;;;9.94;100.00
75460;BME280;64039;53.060;9.342;2023-04-21T06:55:29;101431.31;;;10.03;100.00
75460;BME280;64039;53.060;9.342;2023-04-21T06:57:54;101446.66;;;10.21;100.00
75460;BME280;64039;53.060;9.342;2023-04-21T07:00:20;101429.66;;;10.33;98.94
75460;BME280;64039;53.060;9.342;2023-04-21T07:02:45;101434.09;;;10.35;100.00
75460;BME280;64039;53.060;9.342;2023-04-21T07:05:11;101432.09;;;10.54;98.38
75460;BME280;64039;53.060;9.342;2023-04-21T07:07:36;101428.13;;;10.67;97.09
75460;BME280;64039;53.060;9.342;2023-04-21T07:10:02;101436.03;;;10.68;96.92
75460;BME280;64039;53.060;9.342;2023-04-21T07:12:27;101430.94;;;10.73;95.62
75460;BME280;64039;53.060;9.342;2023-04-21T07:14:53;101430.47;;;10.87;94.88
75460;BME280;64039;53.060;9.342;2023-04-21T07:17:18;101436.97;;;11.01;94.61
75460;BME280;64039;53.060;9.342;2023-04-21T07:19:44;101435.41;;;11.06;92.73
75460;BME280;64039;53.060;9.342;2023-04-21T07:22:09;101431.50;;;11.22;91.58
75460;BME280;64039;53.060;9.342;2023-04-21T07:24:35;101423.94;;;11.31;92.59
75460;BME280;64039;53.060;9.342;2023-04-21T07:27:01;101425.00;;;11.38;89.55
75460;BME280;64039;53.060;9.342;2023-04-21T07:29:27;101422.66;;;11.47;89.16
75460;BME280;64039;53.060;9.342;2023-04-21T07:31:52;101413.47;;;11.62;89.39
75460;BME280;64039;53.060;9.342;2023-04-21T07:34:19;101415.53;;;11.75;88.03
75460;BME280;64039;53.060;9.342;2023-04-21T07:36:44;101408.00;;;11.86;87.67
75460;BME280;64039;53.060;9.342;2023-04-21T07:39:10;101402.16;;;11.96;86.27
75460;BME280;64039;53.060;9.342;2023-04-21T07:41:35;101415.47;;;12.06;86.34
75460;BME280;64039;53.060;9.342;2023-04-21T07:44:01;101412.81;;;12.03;85.39
75460;BME280;64039;53.060;9.342;2023-04-21T07:46:26;101405.25;;;12.15;85.44
75460;BME280;64039;53.060;9.342;2023-04-21T07:48:56;101406.41;;;12.26;83.77
75460;BME280;64039;53.060;9.342;2023-04-21T07:51:22;101404.06;;;12.39;83.38
75460;BME280;64039;53.060;9.342;2023-04-21T07:53:48;101402.72;;;12.56;82.24
75460;BME280;64039;53.060;9.342;2023-04-21T07:56:13;101397.72;;;12.66;80.86
75460;BME280;64039;53.060;9.342;2023-04-21T07:58:39;101399.03;;;12.86;80.56
75460;BME280;64039;53.060;9.342;2023-04-21T08:01:04;101390.69;;;13.04;79.66
75460;BME280;64039;53.060;9.342;2023-04-21T08:03:30;101401.03;;;12.98;78.10
75460;BME280;64039;53.060;9.342;2023-04-21T08:05:55;101389.91;;;13.09;79.49
75460;BME280;64039;53.060;9.342;2023-04-21T08:08:21;101395.38;;;13.23;78.71
75460;BME280;64039;53.060;9.342;2023-04-21T08:10:46;101388.72;;;13.37;77.28
75460;BME280;64039;53.060;9.342;2023-04-21T08:13:12;101392.50;;;13.53;76.87
75460;BME280;64039;53.060;9.342;2023-04-21T08:15:37;101397.25;;;13.74;76.40
75460;BME280;64039;53.060;9.342;2023-04-21T08:18:03;101386.84;;;13.77;75.11
75460;BME280;64039;53.060;9.342;2023-04-21T08:20:28;101380.16;;;13.95;72.59
75460;BME280;64039;53.060;9.342;2023-04-21T08:22:54;101390.03;;;14.13;72.54
75460;BME280;64039;53.060;9.342;2023-04-21T08:25:19;101389.41;;;14.28;71.68
75460;BME280;64039;53.060;9.342;2023-04-21T08:27:45;101388.53;;;14.29;73.08
75460;BME280;64039;53.060;9.342;2023-04-21T08:30:11;101386.22;;;14.52;70.45
75460;BME280;64039;53.060;9.342;2023-04-21T08:32:36;101389.88;;;14.60;70.55
75460;BME280;64039;53.060;9.342;2023-04-21T08:35:01;101376.97;;;14.74;68.70
75460;BME280;64039;53.060;9.342;2023-04-21T08:37:27;101374.53;;;14.88;67.60
75460;BME280;64039;53.060;9.342;2023-04-21T08:39:53;101369.28;;;14.87;66.90
75460;BME280;64039;53.060;9.342;2023-04-21T08:42:19;101376.47;;;15.05;66.81
75460;BME280;64039;53.060;9.342;2023-04-21T08:44:46;101373.91;;;15.11;66.70
75460;BME280;64039;53.060;9.342;2023-04-21T08:47:13;101369.00;;;15.44;66.12
75460;BME280;64039;53.060;9.342;2023-04-21T08:49:40;101369.16;;;15.56;64.85
75460;BME280;64039;53.060;9.342;2023-04-21T08:52:06;101380.56;;;15.61;62.14
75460;BME280;64039;53.060;9.342;2023-04-21T08:54:33;101363.09;;;15.66;60.74
75460;BME280;64039;53.060;9.342;2023-04-21T08:57:00;101375.47;;;15.83;61.77
75460;BME280;64039;53.060;9.342;2023-04-21T08:59:27;101367.56;;;15.78;60.02
75460;BME280;64039;53.060;9.342;2023-04-21T09:04:39;101352.94;;;16.03;59.92
75460;BME280;64039;53.060;9.342;2023-04-21T09:07:05;101360.13;;;16.34;59.52
75460;BME280;64039;53.060;9.342;2023-04-21T09:09:33;101349.66;;;16.39;58.59
75460;BME280;64039;53.060;9.342;2023-04-21T09:11:58;101365.47;;;16.48;57.74
75460;BME280;64039;53.060;9.342;2023-04-21T09:14:33;101350.56;;;16.48;55.46
75460;BME280;64039;53.060;9.342;2023-04-21T09:17:01;101342.75;;;16.64;56.47
75460;BME280;64039;53.060;9.342;2023-04-21T09:19:27;101353.38;;;16.82;56.69
75460;BME280;64039;53.060;9.342;2023-04-21T09:21:53;101348.19;;;16.95;57.39
75460;BME280;64039;53.060;9.342;2023-04-21T09:24:19;101342.13;;;17.16;55.86
75460;BME280;64039;53.060;9.342;2023-04-21T09:26:52;101345.56;;;17.04;55.13
75460;BME280;64039;53.060;9.342;2023-04-21T09:29:21;101338.59;;;17.14;54.37
75460;BME280;64039;53.060;9.342;2023-04-21T09:31:48;101340.34;;;17.13;55.54
75460;BME280;64039;53.060;9.342;2023-04-21T09:34:22;101331.53;;;16.99;54.17
75460;BME280;64039;53.060;9.342;2023-04-21T09:37:02;101331.59;;;17.19;55.33
75460;BME280;64039;53.060;9.342;2023-04-21T09:39:30;101324.59;;;17.41;53.93
75460;BME280;64039;53.060;9.342;2023-04-21T09:41:57;101330.75;;;17.51;54.17
75460;BME280;64039;53.060;9.342;2023-04-21T09:44:25;101322.84;;;17.42;51.86
75460;BME280;64039;53.060;9.342;2023-04-21T09:46:55;101322.84;;;17.42;52.07
75460;BME280;64039;53.060;9.342;2023-04-21T09:49:25;101322.88;;;17.48;53.29
75460;BME280;64039;53.060;9.342;2023-04-21T09:51:54;101326.34;;;17.35;53.39
75460;BME280;64039;53.060;9.342;2023-04-21T09:54:20;101321.09;;;17.32;53.22
75460;BME280;64039;53.060;9.342;2023-04-21T09:56:52;101325.47;;;17.56;53.73
75460;BME280;64039;53.060;9.342;2023-04-21T09:59:24;101314.09;;;17.60;52.50
75460;BME280;64039;53.060;9.342;2023-04-21T10:01:52;101311.47;;;17.74;51.71
75460;BME280;64039;53.060;9.342;2023-04-21T10:04:18;101302.69;;;17.97;51.09
75460;BME280;64039;53.060;9.342;2023-04-21T10:06:45;101297.34;;;18.18;51.59
75460;BME280;64039;53.060;9.342;2023-04-21T10:09:13;101299.91;;;18.45;48.71
75460;BME280;64039;53.060;9.342;2023-04-21T10:11:40;101300.84;;;18.28;48.40
75460;BME280;64039;53.060;9.342;2023-04-21T10:14:07;101283.25;;;18.30;46.73
75460;BME280;64039;53.060;9.342;2023-04-21T10:16:35;101286.81;;;18.29;47.32
75460;BME280;64039;53.060;9.342;2023-04-21T10:19:22;101280.56;;;18.55;47.77
75460;BME280;64039;53.060;9.342;2023-04-21T10:21:49;101268.13;;;18.79;47.04
75460;BME280;64039;53.060;9.342;2023-04-21T10:24:16;101276.84;;;18.98;47.09
75460;BME280;64039;53.060;9.342;2023-04-21T10:26:41;101263.44;;;19.26;46.83
75460;BME280;64039;53.060;9.342;2023-04-21T10:29:07;101249.31;;;19.30;45.80
75460;BME280;64039;53.060;9.342;2023-04-21T10:31:50;101268.78;;;19.16;44.35
75460;BME280;64039;53.060;9.342;2023-04-21T10:34:28;101263.31;;;19.41;44.57
75460;BME280;64039;53.060;9.342;2023-04-21T10:41:54;101263.19;;;19.54;42.58
75460;BME280;64039;53.060;9.342;2023-04-21T10:44:21;101254.47;;;19.45;40.86
75460;BME280;64039;53.060;9.342;2023-04-21T10:46:57;101256.94;;;19.67;42.41
75460;BME280;64039;53.060;9.342;2023-04-21T10:49:28;101246.28;;;19.75;41.38
75460;BME280;64039;53.060;9.342;2023-04-21T10:54:24;101241.81;;;19.82;41.41
75460;BME280;64039;53.060;9.342;2023-04-21T10:56:53;101231.22;;;19.83;40.24
75460;BME280;64039;53.060;9.342;2023-04-21T10:59:20;101239.06;;;19.94;41.63
75460;BME280;64039;53.060;9.342;2023-04-21T11:01:45;101235.63;;;19.87;41.26
75460;BME280;64039;53.060;9.342;2023-04-21T11:04:20;101231.91;;;20.05;42.43
75460;BME280;64039;53.060;9.342;2023-04-21T11:07:12;101226.59;;;20.07;39.32
75460;BME280;64039;53.060;9.342;2023-04-21T11:09:39;101234.69;;;19.91;41.50
75460;BME280;64039;53.060;9.342;2023-04-21T11:12:06;101215.91;;;20.16;40.89
75460;BME280;64039;53.060;9.342;2023-04-21T11:14:35;101225.69;;;20.09;39.57
75460;BME280;64039;53.060;9.342;2023-04-21T11:17:09;101211.56;;;20.12;39.27
75460;BME280;64039;53.060;9.342;2023-04-21T11:19:35;101206.75;;;20.42;41.27
75460;BME280;64039;53.060;9.342;2023-04-21T11:22:02;101206.53;;;20.59;40.26
75460;BME280;64039;53.060;9.342;2023-04-21T11:24:28;101203.97;;;20.53;38.40
75460;BME280;64039;53.060;9.342;2023-04-21T11:26:53;101212.44;;;20.80;38.97
75460;BME280;64039;53.060;9.342;2023-04-21T11:29:19;101186.44;;;21.07;38.05
75460;BME280;64039;53.060;9.342;2023-04-21T11:31:45;101195.91;;;20.62;37.50
75460;BME280;64039;53.060;9.342;2023-04-21T11:34:13;101199.19;;;20.80;37.75
75460;BME280;64039;53.060;9.342;2023-04-21T11:36:42;101190.53;;;20.68;37.28
75460;BME280;64039;53.060;9.342;2023-04-21T11:39:10;101183.47;;;20.69;36.89
75460;BME280;64039;53.060;9.342;2023-04-21T11:41:41;101170.41;;;20.58;37.57
75460;BME280;64039;53.060;9.342;2023-04-21T11:44:07;101167.47;;;20.80;36.30
75460;BME280;64039;53.060;9.342;2023-04-21T11:46:33;101171.97;;;20.75;36.29
75460;BME280;64039;53.060;9.342;2023-04-21T11:49:11;101178.91;;;20.82;36.97
75460;BME280;64039;53.060;9.342;2023-04-21T11:51:39;101162.81;;;20.96;36.32
75460;BME280;64039;53.060;9.342;2023-04-21T11:54:06;101164.56;;;20.97;36.79
75460;BME280;64039;53.060;9.342;2023-04-21T11:56:38;101140.94;;;20.86;35.71
75460;BME280;64039;53.060;9.342;2023-04-21T11:59:14;101166.53;;;20.84;38.49
75460;BME280;64039;53.060;9.342;2023-04-21T12:01:46;101152.75;;;20.58;37.12
75460;BME280;64039;53.060;9.342;2023-04-21T12:04:16;101160.09;;;20.39;37.26
75460;BME280;64039;53.060;9.342;2023-04-21T12:06:43;101151.31;;;20.39;36.98
75460;BME280;64039;53.060;9.342;2023-04-21T12:09:16;101150.22;;;20.52;38.36
75460;BME280;64039;53.060;9.342;2023-04-21T12:11:42;101153.53;;;20.67;37.48
75460;BME280;64039;53.060;9.342;2023-04-21T12:14:07;101148.19;;;20.70;37.33
75460;BME280;64039;53.060;9.342;2023-04-21T12:16:35;101141.13;;;20.73;36.00
75460;BME280;64039;53.060;9.342;2023-04-21T12:19:01;101126.03;;;20.79;36.96
75460;BME280;64039;53.060;9.342;2023-04-21T12:21:29;101144.41;;;20.88;36.68
75460;BME280;64039;53.060;9.342;2023-04-21T12:23:56;101135.50;;;20.94;36.22
75460;BME280;64039;53.060;9.342;2023-04-21T12:26:21;101129.41;;;20.87;35.73
75460;BME280;64039;53.060;9.342;2023-04-21T12:28:49;101132.28;;;20.71;35.38
75460;BME280;64039;53.060;9.342;2023-04-21T12:31:14;101120.63;;;20.86;36.10
75460;BME280;64039;53.060;9.342;2023-04-21T12:33:40;101128.91;;;21.18;36.94
75460;BME280;64039;53.060;9.342;2023-04-21T12:36:06;101107.47;;;21.32;36.74
75460;BME280;64039;53.060;9.342;2023-04-21T12:38:31;101118.69;;;21.45;37.78
75460;BME280;64039;53.060;9.342;2023-04-21T12:40:57;101111.16;;;21.23;36.76
75460;BME280;64039;53.060;9.342;2023-04-21T12:43:22;101111.91;;;21.30;35.72
75460;BME280;64039;53.060;9.342;2023-04-21T12:45:48;101110.84;;;21.39;36.91
75460;BME280;64039;53.060;9.342;2023-04-21T12:48:14;101102.28;;;21.26;35.35
75460;BME280;64039;53.060;9.342;2023-04-21T12:50:39;101108.13;;;21.43;35.87
75460;BME280;64039;53.060;9.342;2023-04-21T12:53:05;101092.41;;;21.34;34.33
75460;BME280;64039;53.060;9.342;2023-04-21T12:55:33;101103.03;;;21.32;34.56
75460;BME280;64039;53.060;9.342;2023-04-21T12:58:00;101101.00;;;21.47;33.92